sensor_id;sensor_type;location;lat;lon;timestamp;temperature;humidity
41694;DHT22;27377;50.666;9.150;2022-07-29T00:02:39;16.90;90.60
41694;DHT22;27377;50.666;9.150;2022-07-29T00:05:23;16.90;90.60
41694;DHT22;27377;50.666;9.150;2022-07-29T00:08:08;16.90;89.70
41694;DHT22;27377;50.666;9.150;2022-07-29T00:10:53;16.90;88.30
41694;DHT22;27377;50.666;9.150;2022-07-29T00:13:37;16.90;88.80
41694;DHT22;27377;50.666;9.150;2022-07-29T00:16:21;16.90;89.40
41694;DHT22;27377;50.666;9.150;2022-07-29T00:19:05;16.90;90.00
41694;DHT22;27377;50.666;9.150;2022-07-29T00:21:49;16.90;90.50
41694;DHT22;27377;50.666;9.150;2022-07-29T00:24:33;16.90;90.60
41694;DHT22;27377;50.666;9.150;2022-07-29T00:27:17;16.90;90.70
41694;DHT22;27377;50.666;9.150;2022-07-29T00:30:03;16.90;90.20
41694;DHT22;27377;50.666;9.150;2022-07-29T00:32:47;16.90;89.30
41694;DHT22;27377;50.666;9.150;2022-07-29T00:35:31;16.90;89.00
41694;DHT22;27377;50.666;9.150;2022-07-29T00:38:27;16.90;89.60
41694;DHT22;27377;50.666;9.150;2022-07-29T00:41:11;16.90;88.40
41694;DHT22;27377;50.666;9.150;2022-07-29T00:43:56;16.90;86.80
41694;DHT22;27377;50.666;9.150;2022-07-29T00:46:40;16.90;88.60
41694;DHT22;27377;50.666;9.150;2022-07-29T00:49:24;16.90;88.70
41694;DHT22;27377;50.666;9.150;2022-07-29T00:52:09;16.90;88.10
41694;DHT22;27377;50.666;9.150;2022-07-29T00:54:53;16.90;87.80
41694;DHT22;27377;50.666;9.150;2022-07-29T00:57:38;16.90;89.40
41694;DHT22;27377;50.666;9.150;2022-07-29T01:00:24;16.90;89.80
41694;DHT22;27377;50.666;9.150;2022-07-29T01:03:08;16.80;89.60
41694;DHT22;27377;50.666;9.150;2022-07-29T01:05:53;16.90;89.70
41694;DHT22;27377;50.666;9.150;2022-07-29T01:08:38;16.90;89.20
41694;DHT22;27377;50.666;9.150;2022-07-29T01:11:22;16.80;89.00
41694;DHT22;27377;50.666;9.150;2022-07-29T01:14:07;16.90;88.20
41694;DHT22;27377;50.666;9.150;2022-07-29T01:17:08;16.90;87.20
41694;DHT22;27377;50.666;9.150;2022-07-29T01:23:08;16.90;85.90
41694;DHT22;27377;50.666;9.150;2022-07-29T01:29:16;17.00;87.10
41694;DHT22;27377;50.666;9.150;2022-07-29T01:32:10;17.00;86.80
41694;DHT22;27377;50.666;9.150;2022-07-29T01:35:02;16.90;87.40
41694;DHT22;27377;50.666;9.150;2022-07-29T01:38:17;17.00;87.20
41694;DHT22;27377;50.666;9.150;2022-07-29T01:41:07;16.90;87.90
41694;DHT22;27377;50.666;9.150;2022-07-29T01:47:44;17.00;87.10
41694;DHT22;27377;50.666;9.150;2022-07-29T01:50:34;17.00;88.70
41694;DHT22;27377;50.666;9.150;2022-07-29T01:53:29;17.00;89.00
41694;DHT22;27377;50.666;9.150;2022-07-29T01:56:16;17.00;88.10
41694;DHT22;27377;50.666;9.150;2022-07-29T01:59:04;17.00;88.10
41694;DHT22;27377;50.666;9.150;2022-07-29T02:01:52;17.10;87.50
41694;DHT22;27377;50.666;9.150;2022-07-29T02:04:40;17.10;87.30
41694;DHT22;27377;50.666;9.150;2022-07-29T02:07:26;17.20;86.60
41694;DHT22;27377;50.666;9.150;2022-07-29T02:10:13;17.20;86.70
41694;DHT22;27377;50.666;9.150;2022-07-29T02:12:59;17.20;85.90
41694;DHT22;27377;50.666;9.150;2022-07-29T02:15:45;17.20;86.10
41694;DHT22;27377;50.666;9.150;2022-07-29T02:18:30;17.20;87.20
41694;DHT22;27377;50.666;9.150;2022-07-29T02:21:20;17.20;86.60
41694;DHT22;27377;50.666;9.150;2022-07-29T02:24:05;17.30;86.00
41694;DHT22;27377;50.666;9.150;2022-07-29T02:26:50;17.30;86.10
41694;DHT22;27377;50.666;9.150;2022-07-29T02:29:35;17.30;86.20
41694;DHT22;27377;50.666;9.150;2022-07-29T02:32:22;17.30;86.50
41694;DHT22;27377;50.666;9.150;2022-07-29T02:35:09;17.30;87.20
41694;DHT22;27377;50.666;9.150;2022-07-29T02:37:54;17.30;87.10
41694;DHT22;27377;50.666;9.150;2022-07-29T02:41:00;17.30;86.60
41694;DHT22;27377;50.666;9.150;2022-07-29T02:43:47;17.30;86.10
41694;DHT22;27377;50.666;9.150;2022-07-29T02:46:34;17.30;86.10
41694;DHT22;27377;50.666;9.150;2022-07-29T02:52:19;17.30;86.60
41694;DHT22;27377;50.666;9.150;2022-07-29T02:55:25;17.30;87.30
41694;DHT22;27377;50.666;9.150;2022-07-29T02:58:24;17.20;87.70
41694;DHT22;27377;50.666;9.150;2022-07-29T03:01:15;17.20;87.60
41694;DHT22;27377;50.666;9.150;2022-07-29T03:04:03;17.20;87.10
41694;DHT22;27377;50.666;9.150;2022-07-29T03:06:48;17.20;86.80
41694;DHT22;27377;50.666;9.150;2022-07-29T03:09:34;17.20;86.60
41694;DHT22;27377;50.666;9.150;2022-07-29T03:12:19;17.20;86.70
41694;DHT22;27377;50.666;9.150;2022-07-29T03:15:03;17.20;86.10
41694;DHT22;27377;50.666;9.150;2022-07-29T03:17:49;17.20;85.90
41694;DHT22;27377;50.666;9.150;2022-07-29T03:20:33;17.20;86.60
41694;DHT22;27377;50.666;9.150;2022-07-29T03:23:22;17.20;86.90
41694;DHT22;27377;50.666;9.150;2022-07-29T03:26:07;17.10;87.20
41694;DHT22;27377;50.666;9.150;2022-07-29T03:28:51;17.10;86.10
41694;DHT22;27377;50.666;9.150;2022-07-29T03:31:35;17.10;86.80
41694;DHT22;27377;50.666;9.150;2022-07-29T03:34:20;17.00;87.50
41694;DHT22;27377;50.666;9.150;2022-07-29T03:37:05;17.00;87.50
41694;DHT22;27377;50.666;9.150;2022-07-29T03:39:51;17.00;88.00
41694;DHT22;27377;50.666;9.150;2022-07-29T03:42:38;17.00;89.10
41694;DHT22;27377;50.666;9.150;2022-07-29T03:45:23;16.90;89.60
41694;DHT22;27377;50.666;9.150;2022-07-29T03:48:11;16.90;89.40
41694;DHT22;27377;50.666;9.150;2022-07-29T03:50:56;16.90;90.00
41694;DHT22;27377;50.666;9.150;2022-07-29T03:53:40;16.90;89.50
41694;DHT22;27377;50.666;9.150;2022-07-29T03:56:27;16.90;89.60
41694;DHT22;27377;50.666;9.150;2022-07-29T03:59:13;16.80;89.70
41694;DHT22;27377;50.666;9.150;2022-07-29T04:01:58;16.80;89.60
41694;DHT22;27377;50.666;9.150;2022-07-29T04:04:42;16.80;89.10
41694;DHT22;27377;50.666;9.150;2022-07-29T04:07:26;16.80;89.90
41694;DHT22;27377;50.666;9.150;2022-07-29T04:10:10;16.80;90.10
41694;DHT22;27377;50.666;9.150;2022-07-29T04:12:54;16.80;90.40
41694;DHT22;27377;50.666;9.150;2022-07-29T04:15:38;16.80;90.70
41694;DHT22;27377;50.666;9.150;2022-07-29T04:18:22;16.80;90.50
41694;DHT22;27377;50.666;9.150;2022-07-29T04:21:06;16.80;90.50
41694;DHT22;27377;50.666;9.150;2022-07-29T04:23:51;16.80;90.50
41694;DHT22;27377;50.666;9.150;2022-07-29T04:26:35;16.80;89.70
41694;DHT22;27377;50.666;9.150;2022-07-29T04:29:19;16.90;88.90
41694;DHT22;27377;50.666;9.150;2022-07-29T04:32:04;17.00;89.20
41694;DHT22;27377;50.666;9.150;2022-07-29T04:34:48;17.00;88.80
41694;DHT22;27377;50.666;9.150;2022-07-29T04:37:33;17.00;88.30
41694;DHT22;27377;50.666;9.150;2022-07-29T04:40:17;17.00;89.80
41694;DHT22;27377;50.666;9.150;2022-07-29T04:43:01;17.00;89.40
41694;DHT22;27377;50.666;9.150;2022-07-29T04:45:45;17.00;89.90
41694;DHT22;27377;50.666;9.150;2022-07-29T04:48:29;16.90;90.30
41694;DHT22;27377;50.666;9.150;2022-07-29T04:51:14;17.00;90.70
41694;DHT22;27377;50.666;9.150;2022-07-29T04:53:58;17.00;90.70
41694;DHT22;27377;50.666;9.150;2022-07-29T04:56:42;17.00;91.40
41694;DHT22;27377;50.666;9.150;2022-07-29T04:59:26;17.00;91.50
41694;DHT22;27377;50.666;9.150;2022-07-29T05:02:11;17.00;91.30
41694;DHT22;27377;50.666;9.150;2022-07-29T05:04:54;17.00;91.70
41694;DHT22;27377;50.666;9.150;2022-07-29T05:07:38;17.00;92.10
41694;DHT22;27377;50.666;9.150;2022-07-29T05:10:23;16.90;92.00
41694;DHT22;27377;50.666;9.150;2022-07-29T05:13:07;16.90;91.70
41694;DHT22;27377;50.666;9.150;2022-07-29T05:15:51;17.00;91.80
41694;DHT22;27377;50.666;9.150;2022-07-29T05:18:35;16.90;92.10
41694;DHT22;27377;50.666;9.150;2022-07-29T05:21:19;16.90;91.80
41694;DHT22;27377;50.666;9.150;2022-07-29T05:24:03;16.90;91.70
41694;DHT22;27377;50.666;9.150;2022-07-29T05:26:48;16.90;91.70
41694;DHT22;27377;50.666;9.150;2022-07-29T05:29:32;17.00;91.60
41694;DHT22;27377;50.666;9.150;2022-07-29T05:32:16;17.00;91.50
41694;DHT22;27377;50.666;9.150;2022-07-29T05:35:00;17.00;91.80
41694;DHT22;27377;50.666;9.150;2022-07-29T05:37:44;17.00;91.80
41694;DHT22;27377;50.666;9.150;2022-07-29T05:40:29;17.00;91.90
41694;DHT22;27377;50.666;9.150;2022-07-29T05:43:15;17.00;92.50
41694;DHT22;27377;50.666;9.150;2022-07-29T05:45:59;17.00;93.80
41694;DHT22;27377;50.666;9.150;2022-07-29T05:48:43;16.90;94.50
41694;DHT22;27377;50.666;9.150;2022-07-29T05:51:27;16.80;95.30
41694;DHT22;27377;50.666;9.150;2022-07-29T05:54:11;16.80;95.40
41694;DHT22;27377;50.666;9.150;2022-07-29T05:56:55;16.70;96.20
41694;DHT22;27377;50.666;9.150;2022-07-29T05:59:39;16.60;96.70
41694;DHT22;27377;50.666;9.150;2022-07-29T06:02:23;16.50;97.30
41694;DHT22;27377;50.666;9.150;2022-07-29T06:05:08;16.50;97.90
41694;DHT22;27377;50.666;9.150;2022-07-29T06:07:52;16.50;98.30
41694;DHT22;27377;50.666;9.150;2022-07-29T06:10:37;16.40;99.10
41694;DHT22;27377;50.666;9.150;2022-07-29T06:13:21;16.30;99.70
41694;DHT22;27377;50.666;9.150;2022-07-29T06:16:05;16.30;99.90
41694;DHT22;27377;50.666;9.150;2022-07-29T06:18:49;16.30;99.90
41694;DHT22;27377;50.666;9.150;2022-07-29T06:21:33;16.20;99.90
41694;DHT22;27377;50.666;9.150;2022-07-29T06:24:17;16.20;99.90
41694;DHT22;27377;50.666;9.150;2022-07-29T06:27:01;16.30;99.90
41694;DHT22;27377;50.666;9.150;2022-07-29T06:29:45;16.20;99.90
41694;DHT22;27377;50.666;9.150;2022-07-29T06:32:29;16.30;99.90
41694;DHT22;27377;50.666;9.150;2022-07-29T06:35:15;16.20;99.90
41694;DHT22;27377;50.666;9.150;2022-07-29T06:37:59;16.20;99.90
41694;DHT22;27377;50.666;9.150;2022-07-29T06:40:43;16.20;99.90
41694;DHT22;27377;50.666;9.150;2022-07-29T06:43:46;16.30;99.90
41694;DHT22;27377;50.666;9.150;2022-07-29T06:46:30;16.30;99.90
41694;DHT22;27377;50.666;9.150;2022-07-29T06:49:14;16.40;99.90
41694;DHT22;27377;50.666;9.150;2022-07-29T06:54:42;16.40;99.90
41694;DHT22;27377;50.666;9.150;2022-07-29T06:57:32;16.30;99.90
41694;DHT22;27377;50.666;9.150;2022-07-29T07:00:16;16.40;99.90
41694;DHT22;27377;50.666;9.150;2022-07-29T07:03:05;16.40;99.90
41694;DHT22;27377;50.666;9.150;2022-07-29T07:05:51;16.30;99.90
41694;DHT22;27377;50.666;9.150;2022-07-29T07:08:36;16.30;99.90
41694;DHT22;27377;50.666;9.150;2022-07-29T07:11:20;16.30;99.90
41694;DHT22;27377;50.666;9.150;2022-07-29T07:14:04;16.30;99.90
41694;DHT22;27377;50.666;9.150;2022-07-29T07:16:48;16.40;99.90
41694;DHT22;27377;50.666;9.150;2022-07-29T07:19:32;16.50;99.90
41694;DHT22;27377;50.666;9.150;2022-07-29T07:22:16;16.50;99.90
41694;DHT22;27377;50.666;9.150;2022-07-29T07:25:00;16.50;99.90
41694;DHT22;27377;50.666;9.150;2022-07-29T07:27:45;16.60;99.90
41694;DHT22;27377;50.666;9.150;2022-07-29T07:30:48;16.70;99.90
41694;DHT22;27377;50.666;9.150;2022-07-29T07:33:32;16.70;99.90
41694;DHT22;27377;50.666;9.150;2022-07-29T07:36:28;16.80;99.90
41694;DHT22;27377;50.666;9.150;2022-07-29T07:39:12;16.90;99.90
41694;DHT22;27377;50.666;9.150;2022-07-29T07:41:56;17.00;99.90
41694;DHT22;27377;50.666;9.150;2022-07-29T07:44:40;17.00;99.90
41694;DHT22;27377;50.666;9.150;2022-07-29T07:47:24;17.10;99.90
41694;DHT22;27377;50.666;9.150;2022-07-29T07:50:10;17.10;99.90
41694;DHT22;27377;50.666;9.150;2022-07-29T07:52:55;17.20;99.90
41694;DHT22;27377;50.666;9.150;2022-07-29T07:55:43;17.30;99.90
41694;DHT22;27377;50.666;9.150;2022-07-29T07:58:27;17.30;99.90
41694;DHT22;27377;50.666;9.150;2022-07-29T08:01:11;17.40;99.90
41694;DHT22;27377;50.666;9.150;2022-07-29T08:03:55;17.40;99.90
41694;DHT22;27377;50.666;9.150;2022-07-29T08:06:39;17.40;99.90
41694;DHT22;27377;50.666;9.150;2022-07-29T08:09:25;17.50;99.90
41694;DHT22;27377;50.666;9.150;2022-07-29T08:12:10;17.50;99.90
41694;DHT22;27377;50.666;9.150;2022-07-29T08:14:54;17.50;99.90
41694;DHT22;27377;50.666;9.150;2022-07-29T08:17:38;17.60;99.90
41694;DHT22;27377;50.666;9.150;2022-07-29T08:20:22;17.60;99.90
41694;DHT22;27377;50.666;9.150;2022-07-29T08:23:07;17.60;99.80
41694;DHT22;27377;50.666;9.150;2022-07-29T08:25:55;17.60;99.60
41694;DHT22;27377;50.666;9.150;2022-07-29T08:28:41;17.70;99.50
41694;DHT22;27377;50.666;9.150;2022-07-29T08:31:28;17.70;99.50
41694;DHT22;27377;50.666;9.150;2022-07-29T08:34:12;17.70;99.20
41694;DHT22;27377;50.666;9.150;2022-07-29T08:36:57;17.70;98.90
41694;DHT22;27377;50.666;9.150;2022-07-29T08:39:41;17.80;99.10
41694;DHT22;27377;50.666;9.150;2022-07-29T08:42:25;17.80;98.80
41694;DHT22;27377;50.666;9.150;2022-07-29T08:45:09;17.80;98.90
41694;DHT22;27377;50.666;9.150;2022-07-29T08:47:55;17.90;98.90
41694;DHT22;27377;50.666;9.150;2022-07-29T08:50:41;17.90;98.40
41694;DHT22;27377;50.666;9.150;2022-07-29T08:53:26;17.90;98.20
41694;DHT22;27377;50.666;9.150;2022-07-29T08:56:12;17.90;97.80
41694;DHT22;27377;50.666;9.150;2022-07-29T08:58:58;17.90;97.80
41694;DHT22;27377;50.666;9.150;2022-07-29T09:01:44;18.00;97.80
41694;DHT22;27377;50.666;9.150;2022-07-29T09:04:30;18.00;97.60
41694;DHT22;27377;50.666;9.150;2022-07-29T09:07:18;18.00;97.50
41694;DHT22;27377;50.666;9.150;2022-07-29T09:10:04;18.10;97.60
41694;DHT22;27377;50.666;9.150;2022-07-29T09:12:48;18.10;97.40
41694;DHT22;27377;50.666;9.150;2022-07-29T09:15:32;18.20;97.40
41694;DHT22;27377;50.666;9.150;2022-07-29T09:18:40;18.20;97.30
41694;DHT22;27377;50.666;9.150;2022-07-29T09:21:24;18.30;97.20
41694;DHT22;27377;50.666;9.150;2022-07-29T09:24:38;18.30;96.70
41694;DHT22;27377;50.666;9.150;2022-07-29T09:27:25;18.30;96.90
41694;DHT22;27377;50.666;9.150;2022-07-29T09:30:14;18.40;96.70
41694;DHT22;27377;50.666;9.150;2022-07-29T09:32:59;18.40;96.50
41694;DHT22;27377;50.666;9.150;2022-07-29T09:35:45;18.50;96.50
41694;DHT22;27377;50.666;9.150;2022-07-29T09:38:29;18.60;96.40
41694;DHT22;27377;50.666;9.150;2022-07-29T09:41:13;18.60;96.30
41694;DHT22;27377;50.666;9.150;2022-07-29T09:43:59;18.70;95.80
41694;DHT22;27377;50.666;9.150;2022-07-29T09:47:04;18.70;95.80
41694;DHT22;27377;50.666;9.150;2022-07-29T09:49:59;18.80;95.70
41694;DHT22;27377;50.666;9.150;2022-07-29T09:52:52;18.80;95.40
41694;DHT22;27377;50.666;9.150;2022-07-29T09:55:49;18.90;95.20
41694;DHT22;27377;50.666;9.150;2022-07-29T09:58:34;19.00;95.20
41694;DHT22;27377;50.666;9.150;2022-07-29T10:01:27;19.10;95.00
41694;DHT22;27377;50.666;9.150;2022-07-29T10:04:11;19.10;95.00
41694;DHT22;27377;50.666;9.150;2022-07-29T10:07:01;19.20;95.10
41694;DHT22;27377;50.666;9.150;2022-07-29T10:09:56;19.30;95.20
41694;DHT22;27377;50.666;9.150;2022-07-29T10:12:58;19.40;95.10
41694;DHT22;27377;50.666;9.150;2022-07-29T10:15:44;19.40;95.00
41694;DHT22;27377;50.666;9.150;2022-07-29T10:18:29;19.40;94.80
41694;DHT22;27377;50.666;9.150;2022-07-29T10:21:13;19.60;94.70
41694;DHT22;27377;50.666;9.150;2022-07-29T10:23:58;19.70;94.50
41694;DHT22;27377;50.666;9.150;2022-07-29T10:26:42;19.70;94.20
41694;DHT22;27377;50.666;9.150;2022-07-29T10:29:28;19.80;93.90
41694;DHT22;27377;50.666;9.150;2022-07-29T10:41:59;20.00;93.70
41694;DHT22;27377;50.666;9.150;2022-07-29T10:44:46;20.00;93.60
41694;DHT22;27377;50.666;9.150;2022-07-29T10:47:31;20.00;93.50
41694;DHT22;27377;50.666;9.150;2022-07-29T10:50:16;20.10;93.50
41694;DHT22;27377;50.666;9.150;2022-07-29T10:53:00;20.10;93.40
41694;DHT22;27377;50.666;9.150;2022-07-29T10:55:44;20.10;93.40
41694;DHT22;27377;50.666;9.150;2022-07-29T10:58:30;20.20;93.50
41694;DHT22;27377;50.666;9.150;2022-07-29T11:01:30;20.20;93.50
41694;DHT22;27377;50.666;9.150;2022-07-29T11:04:15;20.20;93.50
41694;DHT22;27377;50.666;9.150;2022-07-29T11:07:07;20.30;93.50
41694;DHT22;27377;50.666;9.150;2022-07-29T11:12:56;20.50;93.50
41694;DHT22;27377;50.666;9.150;2022-07-29T11:15:57;20.50;93.40
41694;DHT22;27377;50.666;9.150;2022-07-29T11:21:57;20.70;93.40
41694;DHT22;27377;50.666;9.150;2022-07-29T11:24:42;20.80;93.40
41694;DHT22;27377;50.666;9.150;2022-07-29T11:27:30;20.90;93.60
41694;DHT22;27377;50.666;9.150;2022-07-29T11:30:15;20.90;93.80
41694;DHT22;27377;50.666;9.150;2022-07-29T11:32:59;21.00;93.70
41694;DHT22;27377;50.666;9.150;2022-07-29T11:36:10;21.10;93.70
41694;DHT22;27377;50.666;9.150;2022-07-29T11:39:24;21.20;93.70
41694;DHT22;27377;50.666;9.150;2022-07-29T11:48:01;21.30;93.60
41694;DHT22;27377;50.666;9.150;2022-07-29T11:50:45;21.40;93.50
41694;DHT22;27377;50.666;9.150;2022-07-29T11:53:30;21.50;93.50
41694;DHT22;27377;50.666;9.150;2022-07-29T11:56:14;21.50;93.40
41694;DHT22;27377;50.666;9.150;2022-07-29T11:59:06;21.60;93.40
41694;DHT22;27377;50.666;9.150;2022-07-29T12:01:58;21.60;93.20
41694;DHT22;27377;50.666;9.150;2022-07-29T12:04:54;21.60;92.80
41694;DHT22;27377;50.666;9.150;2022-07-29T12:07:39;21.60;93.00
41694;DHT22;27377;50.666;9.150;2022-07-29T12:10:30;21.70;93.00
41694;DHT22;27377;50.666;9.150;2022-07-29T12:13:17;21.70;92.90
41694;DHT22;27377;50.666;9.150;2022-07-29T12:16:02;21.70;92.70
41694;DHT22;27377;50.666;9.150;2022-07-29T12:18:59;21.70;92.70
41694;DHT22;27377;50.666;9.150;2022-07-29T12:21:49;21.70;92.60
41694;DHT22;27377;50.666;9.150;2022-07-29T12:24:44;21.80;92.70
41694;DHT22;27377;50.666;9.150;2022-07-29T12:27:28;21.80;92.70
41694;DHT22;27377;50.666;9.150;2022-07-29T12:30:15;21.90;92.50
41694;DHT22;27377;50.666;9.150;2022-07-29T12:33:17;22.00;92.20
41694;DHT22;27377;50.666;9.150;2022-07-29T12:36:02;22.10;92.30
41694;DHT22;27377;50.666;9.150;2022-07-29T12:38:47;22.10;92.20
41694;DHT22;27377;50.666;9.150;2022-07-29T12:41:32;22.10;92.20
41694;DHT22;27377;50.666;9.150;2022-07-29T12:44:16;22.10;92.30
41694;DHT22;27377;50.666;9.150;2022-07-29T12:47:03;22.20;92.10
41694;DHT22;27377;50.666;9.150;2022-07-29T12:49:49;22.30;92.20
41694;DHT22;27377;50.666;9.150;2022-07-29T12:52:34;22.30;91.90
41694;DHT22;27377;50.666;9.150;2022-07-29T12:55:38;22.30;91.50
41694;DHT22;27377;50.666;9.150;2022-07-29T13:01:17;22.30;91.00
41694;DHT22;27377;50.666;9.150;2022-07-29T13:04:03;22.40;90.80
41694;DHT22;27377;50.666;9.150;2022-07-29T13:06:48;22.30;90.20
41694;DHT22;27377;50.666;9.150;2022-07-29T13:09:45;22.40;90.30
41694;DHT22;27377;50.666;9.150;2022-07-29T13:12:32;22.40;90.70
41694;DHT22;27377;50.666;9.150;2022-07-29T13:15:16;22.40;90.80
41694;DHT22;27377;50.666;9.150;2022-07-29T13:18:00;22.50;90.70
41694;DHT22;27377;50.666;9.150;2022-07-29T13:20:44;22.50;90.70
41694;DHT22;27377;50.666;9.150;2022-07-29T13:23:28;22.60;90.70
41694;DHT22;27377;50.666;9.150;2022-07-29T13:26:12;22.60;90.70
41694;DHT22;27377;50.666;9.150;2022-07-29T13:28:57;22.60;91.00
41694;DHT22;27377;50.666;9.150;2022-07-29T13:31:41;22.70;90.70
41694;DHT22;27377;50.666;9.150;2022-07-29T13:34:25;22.80;90.70
41694;DHT22;27377;50.666;9.150;2022-07-29T13:37:10;22.80;90.60
41694;DHT22;27377;50.666;9.150;2022-07-29T13:39:54;22.80;90.40
41694;DHT22;27377;50.666;9.150;2022-07-29T13:42:39;22.80;90.50
41694;DHT22;27377;50.666;9.150;2022-07-29T13:45:24;22.80;90.60
41694;DHT22;27377;50.666;9.150;2022-07-29T13:48:08;22.80;90.50
41694;DHT22;27377;50.666;9.150;2022-07-29T13:50:52;22.90;90.50
41694;DHT22;27377;50.666;9.150;2022-07-29T13:53:36;22.90;90.60
41694;DHT22;27377;50.666;9.150;2022-07-29T13:56:20;22.90;90.60
41694;DHT22;27377;50.666;9.150;2022-07-29T13:59:04;23.10;90.70
41694;DHT22;27377;50.666;9.150;2022-07-29T14:01:48;23.10;90.60
41694;DHT22;27377;50.666;9.150;2022-07-29T14:04:32;23.20;90.70
41694;DHT22;27377;50.666;9.150;2022-07-29T14:07:17;23.30;90.40
41694;DHT22;27377;50.666;9.150;2022-07-29T14:10:02;23.30;90.40
41694;DHT22;27377;50.666;9.150;2022-07-29T14:12:47;23.30;90.40
41694;DHT22;27377;50.666;9.150;2022-07-29T14:15:31;23.30;90.40
41694;DHT22;27377;50.666;9.150;2022-07-29T14:18:15;23.20;90.40
41694;DHT22;27377;50.666;9.150;2022-07-29T14:20:59;23.20;90.40
41694;DHT22;27377;50.666;9.150;2022-07-29T14:23:43;23.10;90.40
41694;DHT22;27377;50.666;9.150;2022-07-29T14:26:27;23.10;90.40
41694;DHT22;27377;50.666;9.150;2022-07-29T14:29:12;23.10;90.30
41694;DHT22;27377;50.666;9.150;2022-07-29T14:31:56;23.10;90.20
41694;DHT22;27377;50.666;9.150;2022-07-29T14:34:40;23.10;90.20
41694;DHT22;27377;50.666;9.150;2022-07-29T14:37:24;23.10;90.20
41694;DHT22;27377;50.666;9.150;2022-07-29T14:40:09;23.10;90.10
41694;DHT22;27377;50.666;9.150;2022-07-29T14:42:54;23.10;90.20
41694;DHT22;27377;50.666;9.150;2022-07-29T14:45:39;23.00;90.30
41694;DHT22;27377;50.666;9.150;2022-07-29T14:48:23;23.00;90.50
41694;DHT22;27377;50.666;9.150;2022-07-29T14:51:07;23.00;90.60
41694;DHT22;27377;50.666;9.150;2022-07-29T14:53:51;23.00;90.60
41694;DHT22;27377;50.666;9.150;2022-07-29T14:56:35;23.00;90.60
41694;DHT22;27377;50.666;9.150;2022-07-29T14:59:19;23.00;90.60
41694;DHT22;27377;50.666;9.150;2022-07-29T15:02:03;22.90;90.60
41694;DHT22;27377;50.666;9.150;2022-07-29T15:04:47;22.90;90.70
41694;DHT22;27377;50.666;9.150;2022-07-29T15:07:31;22.90;90.70
41694;DHT22;27377;50.666;9.150;2022-07-29T15:10:15;22.90;90.70
41694;DHT22;27377;50.666;9.150;2022-07-29T15:12:59;23.00;90.70
41694;DHT22;27377;50.666;9.150;2022-07-29T15:15:43;23.00;90.50
41694;DHT22;27377;50.666;9.150;2022-07-29T15:18:29;23.00;90.70
41694;DHT22;27377;50.666;9.150;2022-07-29T15:21:13;23.10;90.60
41694;DHT22;27377;50.666;9.150;2022-07-29T15:23:58;23.00;90.50
41694;DHT22;27377;50.666;9.150;2022-07-29T15:26:43;23.10;90.50
41694;DHT22;27377;50.666;9.150;2022-07-29T15:29:27;23.10;90.20
41694;DHT22;27377;50.666;9.150;2022-07-29T15:32:11;23.10;90.00
41694;DHT22;27377;50.666;9.150;2022-07-29T15:34:56;22.90;88.60
41694;DHT22;27377;50.666;9.150;2022-07-29T15:37:40;22.80;88.70
41694;DHT22;27377;50.666;9.150;2022-07-29T15:40:24;22.70;87.80
41694;DHT22;27377;50.666;9.150;2022-07-29T15:43:08;22.60;88.10
41694;DHT22;27377;50.666;9.150;2022-07-29T15:45:52;22.50;88.40
41694;DHT22;27377;50.666;9.150;2022-07-29T15:48:55;22.40;88.10
41694;DHT22;27377;50.666;9.150;2022-07-29T15:51:39;22.40;87.30
41694;DHT22;27377;50.666;9.150;2022-07-29T15:54:23;22.40;86.60
41694;DHT22;27377;50.666;9.150;2022-07-29T15:57:07;22.40;85.60
41694;DHT22;27377;50.666;9.150;2022-07-29T15:59:51;22.30;85.10
41694;DHT22;27377;50.666;9.150;2022-07-29T16:02:35;22.30;84.70
41694;DHT22;27377;50.666;9.150;2022-07-29T16:05:20;22.20;84.90
41694;DHT22;27377;50.666;9.150;2022-07-29T16:08:05;22.30;85.20
41694;DHT22;27377;50.666;9.150;2022-07-29T16:10:49;22.30;84.70
41694;DHT22;27377;50.666;9.150;2022-07-29T16:13:34;22.30;85.10
41694;DHT22;27377;50.666;9.150;2022-07-29T16:16:18;22.30;85.00
41694;DHT22;27377;50.666;9.150;2022-07-29T16:19:02;22.30;85.40
41694;DHT22;27377;50.666;9.150;2022-07-29T16:21:47;22.30;85.50
41694;DHT22;27377;50.666;9.150;2022-07-29T16:24:31;22.30;86.00
41694;DHT22;27377;50.666;9.150;2022-07-29T16:27:15;22.30;86.10
41694;DHT22;27377;50.666;9.150;2022-07-29T16:30:00;22.30;85.60
41694;DHT22;27377;50.666;9.150;2022-07-29T16:32:44;22.40;85.80
41694;DHT22;27377;50.666;9.150;2022-07-29T16:35:28;22.40;85.80
41694;DHT22;27377;50.666;9.150;2022-07-29T16:38:14;22.40;85.20
41694;DHT22;27377;50.666;9.150;2022-07-29T16:40:58;22.40;85.50
41694;DHT22;27377;50.666;9.150;2022-07-29T16:43:42;22.40;85.70
41694;DHT22;27377;50.666;9.150;2022-07-29T16:46:26;22.30;86.00
41694;DHT22;27377;50.666;9.150;2022-07-29T16:49:10;22.40;86.10
41694;DHT22;27377;50.666;9.150;2022-07-29T16:51:54;22.30;86.60
41694;DHT22;27377;50.666;9.150;2022-07-29T16:54:39;22.30;87.10
41694;DHT22;27377;50.666;9.150;2022-07-29T16:57:24;22.30;87.10
41694;DHT22;27377;50.666;9.150;2022-07-29T17:00:08;22.30;87.00
41694;DHT22;27377;50.666;9.150;2022-07-29T17:02:52;22.30;87.20
41694;DHT22;27377;50.666;9.150;2022-07-29T17:05:36;22.30;87.80
41694;DHT22;27377;50.666;9.150;2022-07-29T17:08:21;22.40;88.50
41694;DHT22;27377;50.666;9.150;2022-07-29T17:11:05;22.40;89.60
41694;DHT22;27377;50.666;9.150;2022-07-29T17:13:49;22.40;89.50
41694;DHT22;27377;50.666;9.150;2022-07-29T17:16:33;22.40;90.10
41694;DHT22;27377;50.666;9.150;2022-07-29T17:19:18;22.40;90.40
41694;DHT22;27377;50.666;9.150;2022-07-29T17:22:03;22.30;90.60
41694;DHT22;27377;50.666;9.150;2022-07-29T17:24:48;22.30;90.90
41694;DHT22;27377;50.666;9.150;2022-07-29T17:27:32;22.30;91.20
41694;DHT22;27377;50.666;9.150;2022-07-29T17:30:17;22.30;91.20
41694;DHT22;27377;50.666;9.150;2022-07-29T17:33:01;22.20;91.10
41694;DHT22;27377;50.666;9.150;2022-07-29T17:35:45;22.20;91.10
41694;DHT22;27377;50.666;9.150;2022-07-29T17:38:49;22.10;91.40
41694;DHT22;27377;50.666;9.150;2022-07-29T17:41:33;22.10;91.30
41694;DHT22;27377;50.666;9.150;2022-07-29T17:44:17;22.00;91.20
41694;DHT22;27377;50.666;9.150;2022-07-29T17:47:02;22.00;91.60
41694;DHT22;27377;50.666;9.150;2022-07-29T17:49:46;22.00;92.00
41694;DHT22;27377;50.666;9.150;2022-07-29T17:52:30;21.90;92.10
41694;DHT22;27377;50.666;9.150;2022-07-29T17:55:14;21.90;92.00
41694;DHT22;27377;50.666;9.150;2022-07-29T17:57:58;21.80;91.90
41694;DHT22;27377;50.666;9.150;2022-07-29T18:00:43;21.90;91.90
41694;DHT22;27377;50.666;9.150;2022-07-29T18:03:27;21.80;91.80
41694;DHT22;27377;50.666;9.150;2022-07-29T18:06:11;21.80;91.80
41694;DHT22;27377;50.666;9.150;2022-07-29T18:08:56;21.80;91.80
41694;DHT22;27377;50.666;9.150;2022-07-29T18:11:40;21.80;92.10